Startpagina
METAR-TAF:

METAR-TAF

Vliegvelden :

Aeroporto di Lampedusa

Lampedusa, Italië

breedte: 35-30N, lengte: 012-36E, hoogte: 16 m

Actueel weer

Dit bericht is 38 minuten geleden gemaakt, om 01:50 UTC
Wind 4 kt uit het westen
Temperatuur 14°C
Vochtigheid 77%
Druk 1022 hPa
Zicht 10 km of meer

METAR: LICD 290150Z AUTO 28004KT 9999 NCD 14/10 Q1022

Tijdstip: 03:28 (02:28 UTC)

Verwachting

Dit bericht is 3 uur en het 28 minuten geleden gemaakt, om 23:00 UTC
Verwachting geldig van 29 om 00 UTC tot 29 om 24 UTC
Wind 14 kt uit het westen
Zicht 10 km of meer
Verspreide wolken op 2000 ft
Tijdelijke
van 29 om 06 UTC tot 29 om 09 UTC
Zicht: 4000 m
regenbuien

TAF: LICD 282300Z 2900/2924 27014KT 9999 SCT020 TEMPO 2906/2909 4000 SHRA

Waarnemingen en weersverwachtingen van meer dan 4000 vliegvelden (METAR en TAF).

De beschikbare stations zijn de gele en rode punten op de kaart.

Ga met uw muis naar het station om de naam te zien.

Klik dan om waarnemingen en weersverwachtingen te zien.

kaart wijzigen: klik op de groene knoppen met een zwart kruis om in te zoomen, op de groene knop met een streepje om uit te zoomen of op de groene pijlen voor aangrenzende kaarten.


METAR-TAF: